Time;durP1;ratioP1;P1;durP2;ratioP2;P2;SDS_P1;SDS_P2;PMS_P1;PMS_P2;Temp;Humidity;BMP_temperature;BMP_pressure;BME280_temperature;BME280_humidity;BME280_pressure;Samples;Min_cycle;Max_cycle;Signal;HPM_P1;HPM_P2
2022/09/28 00:00:04;;;;;;;1.30;1.20;;;8.80;99.90;;;;;;474062;251;27700;-70
2022/09/28 00:02:05;;;;;;;1.13;1.13;;;8.80;99.90;;;;;;473308;251;27893;-70
2022/09/28 00:04:06;;;;;;;1.20;1.20;;;8.80;99.90;;;;;;488176;241;27812;-71
2022/09/28 00:06:08;;;;;;;1.37;1.30;;;8.80;99.90;;;;;;484320;245;28228;-69
2022/09/28 00:08:09;;;;;;;1.40;1.30;;;8.80;99.90;;;;;;493970;241;28030;-70
2022/09/28 00:10:11;;;;;;;1.87;1.63;;;8.80;99.90;;;;;;484403;245;28419;-70
2022/09/28 00:12:11;;;;;;;1.23;1.13;;;8.80;99.90;;;;;;493192;241;28430;-70
2022/09/28 00:14:13;;;;;;;1.10;1.10;;;8.80;99.90;;;;;;489453;243;28516;-75
2022/09/28 00:16:14;;;;;;;1.90;1.60;;;8.80;99.90;;;;;;489389;243;28379;-69
2022/09/28 00:18:15;;;;;;;2.40;1.30;;;8.80;99.90;;;;;;489415;243;28415;-69
2022/09/28 00:20:18;;;;;;;1.20;1.20;;;8.80;99.90;;;;;;489444;243;27803;-69
2022/09/28 00:22:18;;;;;;;1.73;1.40;;;8.80;99.90;;;;;;489391;243;27542;-70
2022/09/28 00:24:19;;;;;;;1.10;1.10;;;8.80;99.90;;;;;;489909;235;28062;-70
2022/09/28 00:26:20;;;;;;;1.00;1.00;;;8.80;99.90;;;;;;502787;236;27955;-70
2022/09/28 00:28:21;;;;;;;2.50;1.10;;;8.80;99.90;;;;;;502995;236;27779;-69
2022/09/28 00:30:23;;;;;;;1.23;1.13;;;8.80;99.90;;;;;;502985;236;28448;-69
2022/09/28 00:32:24;;;;;;;2.43;1.10;;;8.80;99.90;;;;;;503003;236;28285;-69
2022/09/28 00:34:25;;;;;;;0.93;0.93;;;8.80;99.90;;;;;;502995;236;28171;-71
2022/09/28 00:36:27;;;;;;;1.00;1.00;;;8.70;99.90;;;;;;502942;236;28079;-70
2022/09/28 00:38:28;;;;;;;1.33;1.13;;;8.70;99.90;;;;;;503000;236;27864;-70
2022/09/28 00:40:29;;;;;;;0.90;0.90;;;8.80;99.90;;;;;;502977;236;28927;-70
2022/09/28 00:42:30;;;;;;;1.10;1.10;;;8.70;99.90;;;;;;503020;236;27878;-70
2022/09/28 00:44:31;;;;;;;1.13;1.00;;;8.70;99.90;;;;;;502923;236;27867;-73
2022/09/28 00:46:33;;;;;;;1.00;1.00;;;8.70;99.90;;;;;;502949;236;27702;-69
2022/09/28 00:48:34;;;;;;;1.53;1.10;;;8.70;99.90;;;;;;502977;236;27501;-73
2022/09/28 00:50:35;;;;;;;1.10;1.10;;;8.70;99.90;;;;;;503000;236;28007;-70
2022/09/28 00:52:36;;;;;;;1.03;1.03;;;8.60;99.90;;;;;;502992;236;28165;-69
2022/09/28 00:54:38;;;;;;;1.40;1.03;;;8.60;99.90;;;;;;502977;236;27513;-71
2022/09/28 00:56:39;;;;;;;1.20;1.10;;;8.60;99.90;;;;;;502905;236;27813;-71
2022/09/28 00:58:40;;;;;;;1.17;1.07;;;8.60;99.90;;;;;;502985;236;27861;-70
2022/09/28 01:00:41;;;;;;;1.17;1.07;;;8.60;99.90;;;;;;502974;236;27793;-69
2022/09/28 01:02:43;;;;;;;1.30;1.10;;;8.50;99.90;;;;;;502973;236;27466;-69
2022/09/28 01:04:44;;;;;;;1.07;1.07;;;8.50;99.90;;;;;;502982;236;27615;-70
2022/09/28 01:06:45;;;;;;;1.20;1.10;;;8.50;99.90;;;;;;502945;236;27797;-68
2022/09/28 01:08:46;;;;;;;1.03;1.03;;;8.50;99.90;;;;;;502968;236;28261;-69
2022/09/28 01:10:48;;;;;;;1.63;1.10;;;8.50;99.90;;;;;;502999;236;27914;-69
2022/09/28 01:12:49;;;;;;;1.10;1.00;;;8.50;99.90;;;;;;502980;236;28045;-70
2022/09/28 01:14:50;;;;;;;1.00;1.00;;;8.50;99.90;;;;;;502996;236;28431;-72
2022/09/28 01:16:51;;;;;;;2.03;1.10;;;8.50;99.90;;;;;;502930;236;28309;-69
2022/09/28 01:18:53;;;;;;;1.07;1.00;;;8.50;99.90;;;;;;502974;236;28394;-69
2022/09/28 01:20:54;;;;;;;1.20;1.10;;;8.50;99.90;;;;;;504055;236;27776;-69
2022/09/28 01:22:55;;;;;;;1.03;1.03;;;8.50;99.90;;;;;;505779;235;27933;-69
2022/09/28 01:24:56;;;;;;;0.97;0.97;;;8.50;99.90;;;;;;503647;236;27954;-72
2022/09/28 01:26:58;;;;;;;1.00;1.00;;;8.50;99.90;;;;;;503659;236;27896;-69
2022/09/28 01:28:59;;;;;;;1.70;1.17;;;8.60;99.90;;;;;;503876;235;28010;-69
2022/09/28 01:31:02;;;;;;;0.97;0.93;;;8.50;99.90;;;;;;503872;235;27786;-69
2022/09/28 01:33:01;;;;;;;1.30;1.20;;;8.50;99.90;;;;;;495526;239;27861;-70
2022/09/28 01:35:03;;;;;;;1.20;1.20;;;8.50;99.90;;;;;;496820;239;28765;-73
2022/09/28 01:37:04;;;;;;;1.10;1.10;;;8.50;99.90;;;;;;503600;236;28092;-69
2022/09/28 01:39:05;;;;;;;1.20;1.20;;;8.60;99.90;;;;;;503730;236;27680;-70
2022/09/28 01:41:06;;;;;;;1.20;1.20;;;8.60;99.90;;;;;;503737;236;27560;-68
2022/09/28 01:43:08;;;;;;;1.30;1.20;;;8.60;99.90;;;;;;503718;231;27703;-69
2022/09/28 01:45:09;;;;;;;1.77;1.50;;;8.50;99.90;;;;;;503718;236;27961;-72
2022/09/28 01:47:10;;;;;;;1.60;1.50;;;8.60;99.90;;;;;;503680;236;28574;-70
2022/09/28 01:49:11;;;;;;;1.60;1.50;;;8.90;99.90;;;;;;503724;236;28312;-70
2022/09/28 01:51:13;;;;;;;1.40;1.30;;;8.60;99.90;;;;;;503676;236;28442;-69
2022/09/28 01:55:31;;;;;;;1.40;1.30;;;8.60;99.90;;;;;;466706;241;29284;-69
2022/09/28 01:57:32;;;;;;;1.50;1.40;;;8.60;99.90;;;;;;467177;254;28475;-69
2022/09/28 01:59:33;;;;;;;1.57;1.47;;;8.60;99.90;;;;;;467191;254;28603;-71
2022/09/28 02:01:34;;;;;;;1.40;1.30;;;8.60;99.90;;;;;;467235;254;28492;-68
2022/09/28 02:03:36;;;;;;;1.47;1.37;;;8.60;99.90;;;;;;473197;234;28010;-69
2022/09/28 02:05:37;;;;;;;1.60;1.50;;;8.60;99.90;;;;;;497293;238;28026;-68
2022/09/28 02:07:38;;;;;;;1.60;1.50;;;8.60;99.90;;;;;;497205;239;28016;-69
2022/09/28 02:09:39;;;;;;;1.30;1.30;;;8.50;99.90;;;;;;478273;248;27717;-68
2022/09/28 02:11:41;;;;;;;3.93;1.50;;;8.60;99.90;;;;;;496705;239;27855;-68
2022/09/28 02:13:42;;;;;;;2.50;1.47;;;8.60;99.90;;;;;;497266;238;28073;-72
2022/09/28 02:15:43;;;;;;;1.73;1.40;;;8.60;99.90;;;;;;497240;239;27935;-69
2022/09/28 02:17:44;;;;;;;3.07;1.30;;;8.60;99.90;;;;;;478250;248;28015;-69
2022/09/28 02:19:46;;;;;;;1.47;1.37;;;8.30;99.90;;;;;;496708;239;28025;-69
2022/09/28 02:21:47;;;;;;;1.40;1.40;;;8.50;99.90;;;;;;497245;238;28046;-69
2022/09/28 02:23:48;;;;;;;1.77;1.67;;;8.50;99.90;;;;;;489489;235;27963;-71
2022/09/28 02:25:51;;;;;;;1.83;1.50;;;8.50;99.90;;;;;;459017;259;27648;-69
2022/09/28 02:27:51;;;;;;;2.10;1.80;;;8.50;99.90;;;;;;458958;258;28092;-69
2022/09/28 02:29:52;;;;;;;4.03;2.00;;;8.50;99.90;;;;;;459054;258;28993;-69
2022/09/28 02:31:53;;;;;;;2.60;1.80;;;8.50;99.90;;;;;;459070;258;28385;-68
2022/09/28 02:33:54;;;;;;;2.00;1.77;;;8.50;99.90;;;;;;467248;242;28471;-70
2022/09/28 02:35:56;;;;;;;2.80;2.10;;;8.50;99.90;;;;;;483398;246;28535;-69
2022/09/28 02:37:57;;;;;;;2.07;1.97;;;8.50;99.90;;;;;;483349;242;28009;-68
2022/09/28 02:39:58;;;;;;;1.67;1.57;;;8.50;99.90;;;;;;483435;246;28399;-69
2022/09/28 02:41:59;;;;;;;1.83;1.50;;;8.50;99.90;;;;;;483445;246;28595;-69
2022/09/28 02:44:01;;;;;;;1.73;1.57;;;8.60;99.90;;;;;;480454;244;27532;-69
2022/09/28 02:46:02;;;;;;;5.63;1.70;;;8.50;99.90;;;;;;469903;253;27727;-69
2022/09/28 02:48:03;;;;;;;2.23;1.83;;;8.50;99.90;;;;;;478315;248;28092;-69
2022/09/28 02:50:04;;;;;;;1.80;1.70;;;8.60;99.90;;;;;;469933;253;28047;-69
2022/09/28 02:52:06;;;;;;;1.80;1.70;;;8.60;99.90;;;;;;478389;248;27865;-69
2022/09/28 02:54:07;;;;;;;1.97;1.87;;;8.60;99.90;;;;;;478367;248;27994;-70
2022/09/28 02:56:08;;;;;;;2.20;2.00;;;8.60;99.90;;;;;;469879;251;27992;-68
2022/09/28 02:58:09;;;;;;;3.00;1.90;;;8.60;99.90;;;;;;478328;245;27948;-68
2022/09/28 03:00:11;;;;;;;2.00;1.77;;;8.60;99.90;;;;;;469912;253;28041;-68
2022/09/28 03:02:12;;;;;;;2.10;1.70;;;8.60;99.90;;;;;;478336;245;28011;-68
2022/09/28 03:04:13;;;;;;;3.83;2.27;;;8.50;99.90;;;;;;469913;253;28151;-69
2022/09/28 03:06:14;;;;;;;1.70;1.60;;;8.50;99.90;;;;;;478291;248;27647;-69
2022/09/28 03:08:16;;;;;;;3.07;2.00;;;8.50;99.90;;;;;;469914;253;27843;-69
2022/09/28 03:10:17;;;;;;;3.77;1.70;;;8.50;99.90;;;;;;478438;248;27875;-68
2022/09/28 03:12:18;;;;;;;5.60;1.90;;;8.50;99.90;;;;;;470008;253;28126;-69
2022/09/28 03:14:19;;;;;;;1.83;1.73;;;8.50;99.90;;;;;;480424;238;27748;-69
2022/09/28 03:16:21;;;;;;;2.50;2.10;;;8.50;99.90;;;;;;474755;250;28077;-69
2022/09/28 03:18:22;;;;;;;2.20;1.70;;;8.50;99.90;;;;;;480113;247;27897;-69
2022/09/28 03:20:23;;;;;;;2.23;2.03;;;8.50;99.90;;;;;;480034;247;28794;-69
2022/09/28 03:22:24;;;;;;;2.60;2.27;;;8.50;99.90;;;;;;480101;247;28278;-69
2022/09/28 03:24:26;;;;;;;2.10;2.00;;;8.50;99.90;;;;;;473360;237;28495;-70
2022/09/28 03:26:27;;;;;;;2.50;2.30;;;8.50;99.90;;;;;;467920;253;28890;-69
2022/09/28 03:28:28;;;;;;;2.50;2.30;;;8.40;99.90;;;;;;468076;253;28370;-69
2022/09/28 03:30:29;;;;;;;4.70;2.30;;;8.50;99.90;;;;;;468076;253;28426;-72
2022/09/28 03:32:31;;;;;;;2.77;2.20;;;8.50;99.90;;;;;;468082;253;28323;-68
2022/09/28 03:34:32;;;;;;;1.80;1.70;;;8.70;99.90;;;;;;468091;253;27545;-71
2022/09/28 03:36:36;;;;;;;2.33;2.13;;;8.50;99.90;;;;;;468030;253;27922;-68
2022/09/28 03:38:35;;;;;;;1.87;1.77;;;8.50;99.90;;;;;;467869;252;28443;-69
2022/09/28 03:40:36;;;;;;;2.50;2.00;;;8.50;99.90;;;;;;468086;253;30287;-69
2022/09/28 03:42:37;;;;;;;2.20;2.00;;;8.50;99.90;;;;;;468086;253;28366;-68
2022/09/28 03:44:38;;;;;;;2.03;1.93;;;8.50;99.90;;;;;;480244;236;27969;-70
2022/09/28 03:46:40;;;;;;;1.67;1.57;;;8.00;99.90;;;;;;484983;245;27874;-68
2022/09/28 03:48:41;;;;;;;2.63;1.80;;;8.50;99.90;;;;;;485005;245;27959;-70
2022/09/28 03:50:42;;;;;;;2.50;2.10;;;8.50;99.90;;;;;;485012;245;27907;-71
2022/09/28 03:52:43;;;;;;;2.10;1.90;;;8.50;99.90;;;;;;485018;245;27983;-69
2022/09/28 03:54:45;;;;;;;2.87;1.73;;;8.50;99.90;;;;;;485028;245;27898;-71
2022/09/28 03:56:46;;;;;;;2.40;2.23;;;8.50;99.90;;;;;;484950;245;27852;-69
2022/09/28 03:58:47;;;;;;;2.83;1.97;;;8.50;99.90;;;;;;485018;245;27742;-69
2022/09/28 04:00:48;;;;;;;2.07;1.87;;;8.50;99.90;;;;;;484963;245;28077;-69
2022/09/28 04:02:49;;;;;;;2.20;2.00;;;8.50;99.90;;;;;;484926;245;27783;-68
2022/09/28 04:04:51;;;;;;;1.80;1.70;;;8.50;99.90;;;;;;475852;236;27884;-70
2022/09/28 04:06:52;;;;;;;2.43;2.20;;;8.50;99.90;;;;;;472320;249;27944;-69
2022/09/28 04:08:53;;;;;;;2.87;1.90;;;8.50;99.90;;;;;;472402;249;28121;-69
2022/09/28 04:10:54;;;;;;;3.97;2.10;;;8.50;99.90;;;;;;472547;249;27958;-71
2022/09/28 04:12:56;;;;;;;3.57;2.47;;;8.70;99.90;;;;;;472555;249;28427;-68
2022/09/28 04:14:57;;;;;;;3.00;2.57;;;8.40;99.90;;;;;;472553;249;28638;-69
2022/09/28 04:16:58;;;;;;;2.47;2.27;;;8.50;99.90;;;;;;472498;249;28578;-69
2022/09/28 04:19:00;;;;;;;2.63;2.40;;;8.50;99.90;;;;;;472573;249;28442;-69
2022/09/28 04:21:02;;;;;;;6.00;2.17;;;8.40;99.90;;;;;;472545;249;28481;-71
2022/09/28 04:23:02;;;;;;;6.23;2.50;;;8.40;99.90;;;;;;472519;249;27900;-68
2022/09/28 04:25:03;;;;;;;2.63;2.30;;;8.40;99.90;;;;;;489106;237;27967;-69
2022/09/28 04:29:24;;;;;;;3.40;2.30;;;8.40;99.90;;;;;;490427;242;27903;-69
2022/09/28 04:31:25;;;;;;;2.60;2.20;;;8.40;99.90;;;;;;490445;242;27837;-70
2022/09/28 04:33:26;;;;;;;2.60;2.40;;;8.50;99.90;;;;;;490439;242;27826;-69
2022/09/28 04:35:28;;;;;;;2.33;2.23;;;8.40;99.90;;;;;;490437;242;28125;-69
2022/09/28 04:37:30;;;;;;;2.57;2.37;;;8.40;99.90;;;;;;490357;242;28376;-71
2022/09/28 04:39:30;;;;;;;3.00;2.40;;;8.60;99.90;;;;;;490414;242;28030;-67
2022/09/28 04:41:31;;;;;;;5.10;2.60;;;8.40;99.90;;;;;;490442;242;27863;-69
2022/09/28 04:43:33;;;;;;;2.50;2.20;;;8.40;99.90;;;;;;487823;242;28368;-68
2022/09/28 04:45:34;;;;;;;3.20;2.43;;;8.40;99.90;;;;;;473405;251;28347;-69
2022/09/28 04:47:35;;;;;;;2.20;2.10;;;8.40;99.90;;;;;;473320;251;28639;-72
2022/09/28 04:49:37;;;;;;;3.20;2.30;;;8.40;99.90;;;;;;473404;251;28148;-69
2022/09/28 04:51:38;;;;;;;2.53;2.33;;;8.40;99.90;;;;;;473299;248;28449;-69
2022/09/28 04:53:39;;;;;;;6.20;3.00;;;8.40;99.90;;;;;;473406;251;28147;-68
2022/09/28 04:55:40;;;;;;;3.47;2.37;;;8.40;99.90;;;;;;473381;251;27840;-69
2022/09/28 04:57:42;;;;;;;2.80;2.10;;;8.30;99.90;;;;;;473325;251;27879;-71
2022/09/28 04:59:43;;;;;;;2.23;2.10;;;8.40;99.90;;;;;;473385;251;27968;-69
2022/09/28 05:01:44;;;;;;;4.20;2.30;;;8.40;99.90;;;;;;473393;251;27886;-72
2022/09/28 05:03:45;;;;;;;3.23;2.40;;;8.40;99.90;;;;;;473402;251;27930;-68
2022/09/28 05:05:46;;;;;;;2.67;2.47;;;8.40;99.90;;;;;;473410;251;27975;-68
2022/09/28 05:07:48;;;;;;;2.53;2.30;;;8.30;99.90;;;;;;473343;251;28279;-72
2022/09/28 05:09:49;;;;;;;2.80;2.60;;;8.40;99.90;;;;;;473395;251;27513;-68
2022/09/28 05:11:51;;;;;;;2.70;2.50;;;8.30;99.90;;;;;;473401;251;28037;-68
2022/09/28 05:13:51;;;;;;;2.43;2.23;;;8.30;99.90;;;;;;473345;251;27884;-68
2022/09/28 05:15:53;;;;;;;2.33;2.23;;;8.20;99.90;;;;;;473410;251;27898;-69
2022/09/28 05:17:54;;;;;;;2.60;2.40;;;8.40;99.90;;;;;;473349;251;28014;-70
2022/09/28 05:19:55;;;;;;;2.53;2.43;;;8.20;99.90;;;;;;473428;251;28059;-68
2022/09/28 05:22:03;;;;;;;4.07;3.00;;;8.20;99.90;;;;;;473406;251;28066;-68
2022/09/28 05:24:06;;;;;;;5.70;2.47;;;8.10;99.90;;;;;;473200;251;28221;-69
2022/09/28 05:26:02;;;;;;;2.83;2.60;;;8.10;99.90;;;;;;473070;251;28819;-68
2022/09/28 05:28:03;;;;;;;2.80;2.60;;;8.10;99.90;;;;;;473392;251;28086;-68
2022/09/28 05:30:04;;;;;;;2.87;2.60;;;8.00;99.90;;;;;;473395;251;27715;-69
2022/09/28 05:32:06;;;;;;;3.47;2.40;;;8.10;99.90;;;;;;473411;251;27936;-68
2022/09/28 05:34:07;;;;;;;6.20;2.73;;;8.10;99.90;;;;;;476006;240;28585;-69
2022/09/28 05:36:08;;;;;;;5.40;2.50;;;8.00;99.90;;;;;;483135;245;28779;-68
2022/09/28 05:38:09;;;;;;;3.43;2.67;;;8.00;99.90;;;;;;483161;246;29087;-69
2022/09/28 05:40:11;;;;;;;3.20;2.90;;;8.10;99.90;;;;;;483156;244;28453;-70
2022/09/28 05:42:12;;;;;;;3.97;2.47;;;8.30;99.90;;;;;;483166;246;28554;-68
2022/09/28 05:44:13;;;;;;;5.17;2.37;;;8.20;99.90;;;;;;475469;241;27981;-68
2022/09/28 05:46:14;;;;;;;2.40;2.17;;;8.20;99.90;;;;;;456934;260;28150;-68
2022/09/28 05:48:15;;;;;;;2.57;2.37;;;8.20;99.90;;;;;;456994;260;27968;-69
2022/09/28 05:50:17;;;;;;;2.50;2.30;;;8.10;99.90;;;;;;456981;260;28049;-69
2022/09/28 05:52:18;;;;;;;4.87;2.50;;;7.90;99.90;;;;;;456994;260;27675;-68
2022/09/28 05:54:19;;;;;;;4.07;3.03;;;8.10;99.90;;;;;;466088;246;28585;-69
2022/09/28 05:56:21;;;;;;;4.60;2.83;;;8.40;99.90;;;;;;473519;248;27931;-68
2022/09/28 05:58:25;;;;;;;4.43;3.37;;;8.20;99.90;;;;;;479281;246;28472;-70
2022/09/28 06:00:26;;;;;;;5.80;2.80;;;8.20;99.90;;;;;;479286;247;27566;-68
2022/09/28 06:02:27;;;;;;;4.20;2.50;;;8.20;99.90;;;;;;479281;247;27954;-69
2022/09/28 06:04:28;;;;;;;4.93;2.53;;;8.20;99.90;;;;;;479276;247;27683;-68
2022/09/28 06:06:30;;;;;;;2.77;2.57;;;8.30;99.90;;;;;;479218;247;27943;-71
2022/09/28 06:08:31;;;;;;;3.40;2.60;;;8.30;99.90;;;;;;479288;248;27886;-71
2022/09/28 06:10:32;;;;;;;3.60;2.40;;;8.30;99.90;;;;;;479295;246;28071;-68
2022/09/28 06:12:33;;;;;;;2.57;2.37;;;7.40;99.90;;;;;;479259;247;28358;-68
2022/09/28 06:14:35;;;;;;;2.40;2.20;;;8.30;99.90;;;;;;479286;247;27735;-68
2022/09/28 06:16:36;;;;;;;2.70;2.50;;;8.40;99.90;;;;;;479218;247;28066;-69
2022/09/28 06:18:37;;;;;;;3.03;2.83;;;7.50;99.90;;;;;;479274;247;27539;-71
2022/09/28 06:20:41;;;;;;;4.30;3.13;;;8.20;99.90;;;;;;479300;247;27810;-69
2022/09/28 06:22:42;;;;;;;2.20;2.10;;;7.90;99.90;;;;;;479286;247;28424;-69
2022/09/28 06:24:44;;;;;;;2.50;2.30;;;8.20;99.90;;;;;;469997;240;28445;-69
2022/09/28 06:26:45;;;;;;;2.73;2.20;;;8.20;99.90;;;;;;466695;255;27907;-68
2022/09/28 06:28:46;;;;;;;3.00;2.67;;;8.20;99.90;;;;;;466773;255;27372;-69
2022/09/28 06:30:47;;;;;;;3.83;2.73;;;7.10;99.90;;;;;;466763;255;27369;-68
2022/09/28 06:32:49;;;;;;;3.00;2.50;;;8.10;99.90;;;;;;466767;255;27459;-68
2022/09/28 06:34:50;;;;;;;2.80;2.57;;;8.20;99.90;;;;;;466723;255;28307;-70
2022/09/28 06:36:51;;;;;;;2.70;2.50;;;8.20;99.90;;;;;;466630;255;27910;-68
2022/09/28 06:38:52;;;;;;;3.20;2.60;;;8.20;99.90;;;;;;466750;255;27849;-68
2022/09/28 06:40:54;;;;;;;2.50;2.30;;;8.30;99.90;;;;;;466742;255;27742;-68
2022/09/28 06:42:55;;;;;;;2.47;2.27;;;8.30;99.90;;;;;;466742;254;27815;-69
2022/09/28 06:44:57;;;;;;;3.27;2.70;;;8.30;99.90;;;;;;466758;255;27915;-70
2022/09/28 06:46:57;;;;;;;3.80;2.80;;;8.40;99.90;;;;;;466705;255;27924;-68
2022/09/28 06:48:59;;;;;;;2.40;2.30;;;8.50;99.90;;;;;;466782;255;27617;-68
2022/09/28 06:51:00;;;;;;;3.50;2.63;;;8.50;99.90;;;;;;466734;255;28057;-71
2022/09/28 06:53:01;;;;;;;3.93;2.80;;;8.50;99.90;;;;;;466773;255;27795;-68
2022/09/28 06:55:02;;;;;;;2.30;2.10;;;8.60;99.90;;;;;;475215;236;28377;-69
2022/09/28 06:57:04;;;;;;;2.77;2.33;;;8.50;99.90;;;;;;475311;248;28463;-68
2022/09/28 06:59:05;;;;;;;2.83;2.63;;;8.50;99.90;;;;;;475361;248;28414;-69
2022/09/28 07:01:06;;;;;;;3.10;2.90;;;8.50;99.90;;;;;;475373;248;28494;-69
2022/09/28 07:03:07;;;;;;;5.00;2.40;;;8.50;99.90;;;;;;475365;248;28505;-69
2022/09/28 07:05:09;;;;;;;3.13;2.53;;;8.50;99.90;;;;;;475365;248;28084;-70
2022/09/28 07:07:10;;;;;;;2.70;2.57;;;8.50;99.90;;;;;;475307;249;27748;-69
2022/09/28 07:09:11;;;;;;;2.87;2.67;;;8.40;99.90;;;;;;475357;248;28000;-69
2022/09/28 07:11:12;;;;;;;3.77;3.07;;;8.40;99.90;;;;;;475356;248;27431;-72
2022/09/28 07:13:14;;;;;;;3.37;3.00;;;8.60;99.90;;;;;;475381;248;27970;-68
2022/09/28 07:15:15;;;;;;;2.50;2.30;;;8.70;99.90;;;;;;475400;248;27784;-69
2022/09/28 07:17:16;;;;;;;4.17;2.90;;;8.70;99.90;;;;;;475325;248;27831;-68
2022/09/28 07:19:17;;;;;;;5.47;3.00;;;8.80;99.90;;;;;;475362;248;27798;-68
2022/09/28 07:21:19;;;;;;;2.80;2.50;;;8.80;99.90;;;;;;475391;248;27763;-73
2022/09/28 07:25:24;;;;;;;2.50;2.30;;;9.00;99.90;;;;;;475066;249;27942;-70
2022/09/28 07:27:25;;;;;;;3.83;2.77;;;9.00;99.90;;;;;;482772;246;27966;-70
2022/09/28 07:29:27;;;;;;;3.40;2.50;;;8.90;99.90;;;;;;475323;249;27872;-69
2022/09/28 07:31:28;;;;;;;5.57;3.50;;;8.90;99.90;;;;;;482840;246;27956;-69
2022/09/28 07:33:31;;;;;;;8.10;2.93;;;9.00;99.90;;;;;;475260;250;27962;-69
2022/09/28 07:35:31;;;;;;;3.20;2.90;;;8.90;99.90;;;;;;482704;245;27569;-69
2022/09/28 07:37:31;;;;;;;6.73;3.10;;;8.90;99.90;;;;;;475116;250;28001;-70
2022/09/28 07:41:10;;;;;;;3.73;2.50;;;8.90;99.90;;;;;;482843;246;27782;-69
2022/09/28 07:41:34;;;;;;;2.90;2.60;;;9.00;99.90;;;;;;473871;250;27957;-69
2022/09/28 07:43:35;;;;;;;4.50;2.57;;;9.00;99.90;;;;;;482500;235;27869;-68
2022/09/28 07:45:37;;;;;;;4.87;2.70;;;9.10;99.90;;;;;;477043;249;27905;-69
2022/09/28 07:47:37;;;;;;;2.97;2.43;;;9.10;99.90;;;;;;474998;250;28017;-71
2022/09/28 07:49:39;;;;;;;3.53;3.20;;;9.20;99.90;;;;;;475652;250;28508;-69
2022/09/28 07:51:43;;;;;;;4.10;2.73;;;9.10;99.90;;;;;;475233;250;28295;-68
2022/09/28 07:53:41;;;;;;;3.37;2.80;;;9.00;99.90;;;;;;475482;250;28623;-69
2022/09/28 07:55:42;;;;;;;4.37;2.93;;;9.00;99.90;;;;;;475199;250;28431;-69
2022/09/28 07:57:45;;;;;;;4.33;3.00;;;9.10;99.90;;;;;;475526;249;28508;-71
2022/09/28 07:59:45;;;;;;;2.53;2.37;;;9.00;99.90;;;;;;475110;250;28041;-69
2022/09/28 08:01:48;;;;;;;4.77;2.63;;;9.30;99.90;;;;;;475657;250;28035;-68
2022/09/28 08:03:47;;;;;;;2.47;2.27;;;9.40;99.90;;;;;;475151;249;27940;-68
2022/09/28 08:05:49;;;;;;;4.07;2.53;;;9.40;99.90;;;;;;475610;250;28008;-68
2022/09/28 08:07:51;;;;;;;6.53;2.63;;;9.20;99.90;;;;;;475099;250;28080;-70
2022/09/28 08:09:51;;;;;;;8.93;2.70;;;9.10;99.90;;;;;;475543;250;28028;-71
2022/09/28 08:11:53;;;;;;;3.03;2.30;;;9.30;99.90;;;;;;475213;250;27964;-69
2022/09/28 08:13:54;;;;;;;5.60;2.57;;;9.30;99.90;;;;;;475623;250;28039;-69
2022/09/28 08:15:55;;;;;;;2.90;2.57;;;9.40;99.90;;;;;;475231;250;28023;-69
2022/09/28 08:17:57;;;;;;;3.47;2.63;;;9.60;99.90;;;;;;467194;254;28062;-70
2022/09/28 08:22:17;;;;;;;6.70;2.43;;;9.60;99.90;;;;;;475206;250;28121;-69
2022/09/28 08:24:18;;;;;;;4.33;2.80;;;9.60;99.90;;;;;;475656;250;27924;-68
2022/09/28 08:26:19;;;;;;;2.83;2.50;;;9.80;99.90;;;;;;475137;250;27929;-68
2022/09/28 08:28:21;;;;;;;4.80;2.50;;;9.90;99.90;;;;;;475612;250;28135;-70
2022/09/28 08:30:22;;;;;;;2.87;2.33;;;9.90;99.90;;;;;;475221;249;28108;-69
2022/09/28 08:32:23;;;;;;;3.33;2.40;;;9.30;99.90;;;;;;475669;250;28242;-69
2022/09/28 08:34:26;;;;;;;7.13;3.17;;;9.90;99.90;;;;;;475230;250;27914;-69
2022/09/28 08:36:27;;;;;;;3.17;2.73;;;9.90;99.90;;;;;;475543;250;28070;-70
2022/09/28 08:38:27;;;;;;;6.10;3.20;;;10.10;99.90;;;;;;475160;249;27951;-70
2022/09/28 08:40:28;;;;;;;4.73;2.80;;;10.00;99.90;;;;;;475669;250;27999;-69
2022/09/28 08:42:30;;;;;;;2.77;2.40;;;10.10;99.90;;;;;;475226;250;28089;-69
2022/09/28 08:44:30;;;;;;;4.87;2.37;;;10.10;99.90;;;;;;470671;236;28202;-68
2022/09/28 08:46:32;;;;;;;4.70;2.50;;;10.00;99.90;;;;;;455926;261;28013;-69
2022/09/28 08:48:47;;;;;;;3.33;2.60;;;10.10;99.90;;;;;;455594;261;28449;-70
2022/09/28 08:50:46;;;;;;;4.43;2.33;;;10.20;99.90;;;;;;460486;256;28123;-71
2022/09/28 08:52:47;;;;;;;3.47;2.17;;;10.40;99.90;;;;;;460446;255;28384;-69
2022/09/28 08:54:49;;;;;;;4.87;2.60;;;10.40;99.90;;;;;;460463;256;28548;-68
2022/09/28 08:56:50;;;;;;;5.30;2.67;;;10.30;99.90;;;;;;460427;255;28626;-69
2022/09/28 08:58:51;;;;;;;2.70;1.90;;;10.20;99.90;;;;;;460364;255;28162;-72
2022/09/28 09:00:53;;;;;;;2.83;2.20;;;10.50;99.90;;;;;;460465;255;28010;-69
2022/09/28 09:02:53;;;;;;;4.07;2.30;;;10.50;99.90;;;;;;460468;255;28055;-69
2022/09/28 09:04:55;;;;;;;4.50;2.60;;;10.60;99.90;;;;;;460461;255;27657;-69
2022/09/28 09:06:56;;;;;;;2.67;1.93;;;10.40;99.90;;;;;;460432;255;27957;-69
2022/09/28 09:08:58;;;;;;;2.27;2.07;;;10.40;99.90;;;;;;460446;255;28062;-72
2022/09/28 09:10:59;;;;;;;2.90;2.40;;;10.50;99.90;;;;;;460469;255;28136;-69
2022/09/28 09:13:00;;;;;;;2.93;2.33;;;10.60;99.90;;;;;;460495;255;28193;-69
2022/09/28 09:15:01;;;;;;;2.20;2.00;;;10.60;99.90;;;;;;460495;256;28071;-68
2022/09/28 09:17:02;;;;;;;2.10;1.90;;;10.50;99.90;;;;;;460424;255;28057;-68
2022/09/28 09:19:04;;;;;;;3.97;2.30;;;10.40;99.90;;;;;;460485;255;28090;-71
2022/09/28 09:21:05;;;;;;;3.23;2.93;;;10.30;99.90;;;;;;460504;255;28517;-69
2022/09/28 09:23:06;;;;;;;6.97;2.43;;;10.10;99.90;;;;;;460363;258;28052;-69
2022/09/28 09:25:08;;;;;;;2.30;2.10;;;10.10;99.90;;;;;;460504;255;27975;-69
2022/09/28 09:27:09;;;;;;;6.17;2.57;;;10.00;99.90;;;;;;460456;255;28053;-69
2022/09/28 09:29:11;;;;;;;4.77;2.57;;;10.00;99.90;;;;;;460495;255;28045;-71
2022/09/28 09:31:11;;;;;;;3.00;2.13;;;9.90;99.90;;;;;;460480;256;27703;-69
2022/09/28 09:35:19;;;;;;;3.00;2.23;;;9.80;99.90;;;;;;472848;248;28468;-68
2022/09/28 09:37:20;;;;;;;3.70;2.20;;;10.00;99.90;;;;;;472841;249;29271;-69
2022/09/28 09:39:21;;;;;;;3.57;2.10;;;10.20;99.90;;;;;;472932;249;28369;-69
2022/09/28 09:41:23;;;;;;;3.93;2.50;;;10.20;99.90;;;;;;472937;245;27932;-70
2022/09/28 09:43:24;;;;;;;1.93;1.83;;;10.30;99.90;;;;;;472951;249;27908;-68
2022/09/28 09:45:25;;;;;;;3.27;2.23;;;10.30;99.90;;;;;;472930;249;27796;-70
2022/09/28 09:47:26;;;;;;;1.90;1.80;;;10.20;99.90;;;;;;472888;251;27772;-68
2022/09/28 09:49:28;;;;;;;1.73;1.57;;;10.30;99.90;;;;;;472933;249;28035;-69
2022/09/28 09:51:29;;;;;;;3.13;1.97;;;10.30;99.90;;;;;;472928;249;27795;-70
2022/09/28 09:53:30;;;;;;;2.80;1.60;;;10.30;99.90;;;;;;472943;249;27941;-70
2022/09/28 09:55:31;;;;;;;2.37;2.17;;;10.40;99.90;;;;;;472926;249;27818;-68
2022/09/28 09:57:33;;;;;;;2.67;2.13;;;10.40;99.90;;;;;;472866;249;28421;-68
2022/09/28 09:59:34;;;;;;;1.67;1.57;;;10.40;99.90;;;;;;472940;249;28268;-68
2022/09/28 10:01:35;;;;;;;2.10;2.00;;;10.60;99.90;;;;;;472922;249;28413;-70
2022/09/28 10:03:36;;;;;;;2.53;1.80;;;10.60;99.90;;;;;;472910;249;28381;-69
2022/09/28 10:05:38;;;;;;;2.20;1.90;;;10.80;99.90;;;;;;472941;249;27846;-69
2022/09/28 10:07:39;;;;;;;2.53;2.07;;;10.70;99.90;;;;;;472883;249;28011;-72
2022/09/28 10:09:40;;;;;;;2.37;2.00;;;10.80;99.90;;;;;;472929;249;28005;-69
2022/09/28 10:11:41;;;;;;;2.77;2.17;;;10.70;99.90;;;;;;472941;249;27802;-70
2022/09/28 10:13:43;;;;;;;4.43;1.97;;;10.70;99.90;;;;;;472827;249;27666;-70
2022/09/28 10:15:46;;;;;;;1.90;1.80;;;10.80;99.90;;;;;;472940;249;28017;-68
2022/09/28 10:17:45;;;;;;;3.70;1.87;;;10.80;99.90;;;;;;472698;251;28530;-69
2022/09/28 10:19:46;;;;;;;2.10;1.90;;;10.90;99.90;;;;;;472929;249;28016;-69
2022/09/28 10:21:49;;;;;;;2.87;1.90;;;10.60;99.90;;;;;;472932;249;28012;-70
2022/09/28 10:23:49;;;;;;;1.90;1.80;;;10.50;99.90;;;;;;472917;249;28348;-70
2022/09/28 10:25:50;;;;;;;2.50;1.70;;;10.60;99.90;;;;;;472912;249;28290;-70
2022/09/28 10:27:51;;;;;;;1.70;1.60;;;10.50;99.90;;;;;;472801;249;28548;-69
2022/09/28 10:29:53;;;;;;;2.13;1.93;;;10.60;99.90;;;;;;472849;249;27972;-69
2022/09/28 10:31:54;;;;;;;2.00;1.83;;;10.80;99.90;;;;;;472880;249;27953;-71
2022/09/28 10:33:55;;;;;;;1.90;1.80;;;10.90;99.90;;;;;;472911;249;27992;-69
2022/09/28 10:35:56;;;;;;;3.13;2.50;;;10.80;99.90;;;;;;472873;249;27817;-69
2022/09/28 10:37:58;;;;;;;2.17;1.97;;;10.90;99.90;;;;;;472835;249;27980;-70
2022/09/28 10:39:59;;;;;;;2.27;1.90;;;11.10;99.90;;;;;;472882;249;27795;-70
2022/09/28 10:42:03;;;;;;;2.07;1.80;;;11.20;99.90;;;;;;472881;249;27913;-71
2022/09/28 10:44:09;;;;;;;2.80;2.30;;;11.50;99.90;;;;;;472788;251;27974;-69
2022/09/28 10:46:09;;;;;;;2.20;2.00;;;11.60;99.90;;;;;;472815;251;28055;-70
2022/09/28 10:48:10;;;;;;;2.70;2.30;;;11.70;99.90;;;;;;472930;249;29186;-69